sensor_id;sensor_type;location;lat;lon;timestamp;temperature;humidity
52273;DHT22;38227;50.942;4.016;2023-04-06T00:01:14;11.00;77.10
52273;DHT22;38227;50.942;4.016;2023-04-06T00:03:43;10.90;77.80
52273;DHT22;38227;50.942;4.016;2023-04-06T00:06:16;10.80;78.20
52273;DHT22;38227;50.942;4.016;2023-04-06T00:08:46;10.90;77.30
52273;DHT22;38227;50.942;4.016;2023-04-06T00:11:19;10.80;78.10
52273;DHT22;38227;50.942;4.016;2023-04-06T00:13:48;10.80;78.50
52273;DHT22;38227;50.942;4.016;2023-04-06T00:16:21;10.90;78.00
52273;DHT22;38227;50.942;4.016;2023-04-06T00:18:51;10.90;78.40
52273;DHT22;38227;50.942;4.016;2023-04-06T00:21:19;10.80;78.80
52273;DHT22;38227;50.942;4.016;2023-04-06T00:23:52;10.70;79.30
52273;DHT22;38227;50.942;4.016;2023-04-06T00:26:20;10.60;79.70
52273;DHT22;38227;50.942;4.016;2023-04-06T00:28:49;10.50;79.80
52273;DHT22;38227;50.942;4.016;2023-04-06T00:31:29;10.40;80.20
52273;DHT22;38227;50.942;4.016;2023-04-06T00:34:09;10.30;80.40
52273;DHT22;38227;50.942;4.016;2023-04-06T00:36:38;10.20;80.90
52273;DHT22;38227;50.942;4.016;2023-04-06T00:39:11;10.20;81.20
52273;DHT22;38227;50.942;4.016;2023-04-06T00:41:51;10.20;81.00
52273;DHT22;38227;50.942;4.016;2023-04-06T00:44:23;10.10;81.60
52273;DHT22;38227;50.942;4.016;2023-04-06T00:46:54;10.20;81.90
52273;DHT22;38227;50.942;4.016;2023-04-06T00:49:28;10.10;82.10
52273;DHT22;38227;50.942;4.016;2023-04-06T00:51:58;10.10;82.00
52273;DHT22;38227;50.942;4.016;2023-04-06T00:54:32;10.10;82.10
52273;DHT22;38227;50.942;4.016;2023-04-06T00:57:13;10.20;81.90
52273;DHT22;38227;50.942;4.016;2023-04-06T00:59:46;10.10;82.30
52273;DHT22;38227;50.942;4.016;2023-04-06T01:02:18;10.00;82.30
52273;DHT22;38227;50.942;4.016;2023-04-06T01:04:58;10.00;82.50
52273;DHT22;38227;50.942;4.016;2023-04-06T01:07:28;9.90;82.60
52273;DHT22;38227;50.942;4.016;2023-04-06T01:10:01;9.90;83.20
52273;DHT22;38227;50.942;4.016;2023-04-06T01:12:34;9.90;82.80
52273;DHT22;38227;50.942;4.016;2023-04-06T01:15:04;10.00;82.70
52273;DHT22;38227;50.942;4.016;2023-04-06T01:17:42;9.90;82.60
52273;DHT22;38227;50.942;4.016;2023-04-06T01:20:28;9.90;83.20
52273;DHT22;38227;50.942;4.016;2023-04-06T01:23:06;10.00;82.70
52273;DHT22;38227;50.942;4.016;2023-04-06T01:25:39;10.00;82.70
52273;DHT22;38227;50.942;4.016;2023-04-06T01:28:26;10.10;82.90
52273;DHT22;38227;50.942;4.016;2023-04-06T01:30:56;10.00;83.30
52273;DHT22;38227;50.942;4.016;2023-04-06T01:33:36;9.90;83.20
52273;DHT22;38227;50.942;4.016;2023-04-06T01:36:06;10.00;83.50
52273;DHT22;38227;50.942;4.016;2023-04-06T01:38:40;10.00;83.30
52273;DHT22;38227;50.942;4.016;2023-04-06T01:41:18;10.00;83.40
52273;DHT22;38227;50.942;4.016;2023-04-06T01:43:49;10.10;83.20
52273;DHT22;38227;50.942;4.016;2023-04-06T01:46:26;9.90;83.70
52273;DHT22;38227;50.942;4.016;2023-04-06T01:49:05;9.90;84.20
52273;DHT22;38227;50.942;4.016;2023-04-06T01:51:34;9.90;84.70
52273;DHT22;38227;50.942;4.016;2023-04-06T01:54:07;9.80;85.10
52273;DHT22;38227;50.942;4.016;2023-04-06T01:56:36;9.90;85.10
52273;DHT22;38227;50.942;4.016;2023-04-06T01:59:08;9.80;85.80
52273;DHT22;38227;50.942;4.016;2023-04-06T02:01:36;9.80;85.70
52273;DHT22;38227;50.942;4.016;2023-04-06T02:04:15;9.70;86.00
52273;DHT22;38227;50.942;4.016;2023-04-06T02:06:44;9.60;86.50
52273;DHT22;38227;50.942;4.016;2023-04-06T02:09:17;9.60;86.60
52273;DHT22;38227;50.942;4.016;2023-04-06T02:11:48;9.60;86.80
52273;DHT22;38227;50.942;4.016;2023-04-06T02:14:28;9.60;86.70
52273;DHT22;38227;50.942;4.016;2023-04-06T02:16:57;9.60;86.80
52273;DHT22;38227;50.942;4.016;2023-04-06T02:19:37;9.60;86.90
52273;DHT22;38227;50.942;4.016;2023-04-06T02:22:06;9.70;87.00
52273;DHT22;38227;50.942;4.016;2023-04-06T02:24:40;9.70;86.80
52273;DHT22;38227;50.942;4.016;2023-04-06T02:27:09;9.70;86.40
52273;DHT22;38227;50.942;4.016;2023-04-06T02:29:48;9.80;86.60
52273;DHT22;38227;50.942;4.016;2023-04-06T02:32:17;9.90;86.40
52273;DHT22;38227;50.942;4.016;2023-04-06T02:34:58;9.80;86.50
52273;DHT22;38227;50.942;4.016;2023-04-06T02:37:28;9.80;87.30
52273;DHT22;38227;50.942;4.016;2023-04-06T02:40:08;9.90;87.00
52273;DHT22;38227;50.942;4.016;2023-04-06T02:42:38;9.80;87.10
52273;DHT22;38227;50.942;4.016;2023-04-06T02:45:20;9.80;87.50
52273;DHT22;38227;50.942;4.016;2023-04-06T02:47:51;9.80;87.90
52273;DHT22;38227;50.942;4.016;2023-04-06T02:50:30;9.80;87.60
52273;DHT22;38227;50.942;4.016;2023-04-06T02:53:00;9.70;88.20
52273;DHT22;38227;50.942;4.016;2023-04-06T02:55:33;9.70;88.90
52273;DHT22;38227;50.942;4.016;2023-04-06T02:58:06;9.70;89.10
52273;DHT22;38227;50.942;4.016;2023-04-06T03:00:45;9.60;89.60
52273;DHT22;38227;50.942;4.016;2023-04-06T03:03:14;9.60;90.00
52273;DHT22;38227;50.942;4.016;2023-04-06T03:05:44;9.50;90.00
52273;DHT22;38227;50.942;4.016;2023-04-06T03:08:18;9.40;90.50
52273;DHT22;38227;50.942;4.016;2023-04-06T03:10:47;9.30;90.70
52273;DHT22;38227;50.942;4.016;2023-04-06T03:13:26;9.30;90.80
52273;DHT22;38227;50.942;4.016;2023-04-06T03:15:55;9.50;90.70
52273;DHT22;38227;50.942;4.016;2023-04-06T03:18:26;9.60;90.60
52273;DHT22;38227;50.942;4.016;2023-04-06T03:21:01;9.60;90.70
52273;DHT22;38227;50.942;4.016;2023-04-06T03:23:29;9.50;91.00
52273;DHT22;38227;50.942;4.016;2023-04-06T03:26:02;9.50;91.10
52273;DHT22;38227;50.942;4.016;2023-04-06T03:28:30;9.40;91.30
52273;DHT22;38227;50.942;4.016;2023-04-06T03:30:59;9.40;91.50
52273;DHT22;38227;50.942;4.016;2023-04-06T03:33:33;9.50;91.60
52273;DHT22;38227;50.942;4.016;2023-04-06T03:36:03;9.50;92.00
52273;DHT22;38227;50.942;4.016;2023-04-06T03:38:43;9.60;91.80
52273;DHT22;38227;50.942;4.016;2023-04-06T03:41:11;9.60;91.80
52273;DHT22;38227;50.942;4.016;2023-04-06T03:43:50;9.70;91.70
52273;DHT22;38227;50.942;4.016;2023-04-06T03:46:20;9.70;92.10
52273;DHT22;38227;50.942;4.016;2023-04-06T03:48:59;9.60;92.40
52273;DHT22;38227;50.942;4.016;2023-04-06T03:51:28;9.70;92.70
52273;DHT22;38227;50.942;4.016;2023-04-06T03:54:07;9.70;92.70
52273;DHT22;38227;50.942;4.016;2023-04-06T03:56:39;9.70;92.90
52273;DHT22;38227;50.942;4.016;2023-04-06T03:59:09;9.80;92.80
52273;DHT22;38227;50.942;4.016;2023-04-06T04:01:48;9.80;92.70
52273;DHT22;38227;50.942;4.016;2023-04-06T04:04:17;9.90;92.60
52273;DHT22;38227;50.942;4.016;2023-04-06T04:06:51;9.90;92.50
52273;DHT22;38227;50.942;4.016;2023-04-06T04:09:20;9.90;92.60
52273;DHT22;38227;50.942;4.016;2023-04-06T04:11:53;9.90;92.60
52273;DHT22;38227;50.942;4.016;2023-04-06T04:14:23;9.80;92.90
52273;DHT22;38227;50.942;4.016;2023-04-06T04:17:02;9.80;92.80
52273;DHT22;38227;50.942;4.016;2023-04-06T04:19:33;9.80;93.00
52273;DHT22;38227;50.942;4.016;2023-04-06T04:22:03;9.80;93.10
52273;DHT22;38227;50.942;4.016;2023-04-06T04:24:42;9.90;93.30
52273;DHT22;38227;50.942;4.016;2023-04-06T04:27:15;9.80;93.60
52273;DHT22;38227;50.942;4.016;2023-04-06T04:29:54;9.90;93.30
52273;DHT22;38227;50.942;4.016;2023-04-06T04:32:24;9.80;93.70
52273;DHT22;38227;50.942;4.016;2023-04-06T04:34:58;9.70;93.70
52273;DHT22;38227;50.942;4.016;2023-04-06T04:37:36;9.80;94.00
52273;DHT22;38227;50.942;4.016;2023-04-06T04:40:07;10.00;93.70
52273;DHT22;38227;50.942;4.016;2023-04-06T04:42:48;10.00;93.50
52273;DHT22;38227;50.942;4.016;2023-04-06T04:45:17;10.00;94.00
52273;DHT22;38227;50.942;4.016;2023-04-06T04:47:45;10.00;94.20
52273;DHT22;38227;50.942;4.016;2023-04-06T04:50:24;10.20;93.80
52273;DHT22;38227;50.942;4.016;2023-04-06T04:53:04;9.90;94.30
52273;DHT22;38227;50.942;4.016;2023-04-06T04:55:37;9.90;94.70
52273;DHT22;38227;50.942;4.016;2023-04-06T04:58:06;9.80;95.20
52273;DHT22;38227;50.942;4.016;2023-04-06T05:00:37;9.60;95.80
52273;DHT22;38227;50.942;4.016;2023-04-06T05:03:07;9.40;96.50
52273;DHT22;38227;50.942;4.016;2023-04-06T05:05:39;9.50;96.80
52273;DHT22;38227;50.942;4.016;2023-04-06T05:08:09;9.60;96.40
52273;DHT22;38227;50.942;4.016;2023-04-06T05:10:48;9.70;96.30
52273;DHT22;38227;50.942;4.016;2023-04-06T05:13:17;9.70;96.90
52273;DHT22;38227;50.942;4.016;2023-04-06T05:15:57;9.60;96.90
52273;DHT22;38227;50.942;4.016;2023-04-06T05:18:27;9.50;97.50
52273;DHT22;38227;50.942;4.016;2023-04-06T05:21:07;9.50;97.70
52273;DHT22;38227;50.942;4.016;2023-04-06T05:23:37;9.40;97.80
52273;DHT22;38227;50.942;4.016;2023-04-06T05:26:07;9.40;98.20
52273;DHT22;38227;50.942;4.016;2023-04-06T05:28:47;9.40;98.30
52273;DHT22;38227;50.942;4.016;2023-04-06T05:31:17;9.40;98.70
52273;DHT22;38227;50.942;4.016;2023-04-06T05:33:47;9.40;99.10
52273;DHT22;38227;50.942;4.016;2023-04-06T05:36:21;9.40;99.90
52273;DHT22;38227;50.942;4.016;2023-04-06T05:39:00;9.30;99.90
52273;DHT22;38227;50.942;4.016;2023-04-06T05:41:36;9.40;99.90
52273;DHT22;38227;50.942;4.016;2023-04-06T05:44:06;9.40;99.90
52273;DHT22;38227;50.942;4.016;2023-04-06T05:46:37;9.40;99.90
52273;DHT22;38227;50.942;4.016;2023-04-06T05:49:17;9.30;99.90
52273;DHT22;38227;50.942;4.016;2023-04-06T05:51:48;9.30;99.90
52273;DHT22;38227;50.942;4.016;2023-04-06T05:54:23;9.30;99.90
52273;DHT22;38227;50.942;4.016;2023-04-06T05:57:03;9.30;99.90
52273;DHT22;38227;50.942;4.016;2023-04-06T05:59:33;9.30;99.90
52273;DHT22;38227;50.942;4.016;2023-04-06T06:02:07;9.30;99.90
52273;DHT22;38227;50.942;4.016;2023-04-06T06:04:42;9.40;99.90
52273;DHT22;38227;50.942;4.016;2023-04-06T06:07:20;9.50;99.90
52273;DHT22;38227;50.942;4.016;2023-04-06T06:09:50;9.40;99.90
52273;DHT22;38227;50.942;4.016;2023-04-06T06:12:21;9.40;99.90
52273;DHT22;38227;50.942;4.016;2023-04-06T06:14:52;9.20;99.90
52273;DHT22;38227;50.942;4.016;2023-04-06T06:17:33;9.30;99.90
52273;DHT22;38227;50.942;4.016;2023-04-06T06:20:11;9.10;99.90
52273;DHT22;38227;50.942;4.016;2023-04-06T06:22:44;9.10;99.90
52273;DHT22;38227;50.942;4.016;2023-04-06T06:25:42;9.10;99.90
52273;DHT22;38227;50.942;4.016;2023-04-06T06:28:20;9.00;99.90
52273;DHT22;38227;50.942;4.016;2023-04-06T06:30:55;9.00;99.90
52273;DHT22;38227;50.942;4.016;2023-04-06T06:33:25;9.10;99.90
52273;DHT22;38227;50.942;4.016;2023-04-06T06:36:07;9.00;99.90
52273;DHT22;38227;50.942;4.016;2023-04-06T06:38:36;8.90;99.90
52273;DHT22;38227;50.942;4.016;2023-04-06T06:41:17;8.80;99.90
52273;DHT22;38227;50.942;4.016;2023-04-06T06:44:08;8.80;99.90
52273;DHT22;38227;50.942;4.016;2023-04-06T06:46:47;8.70;99.90
52273;DHT22;38227;50.942;4.016;2023-04-06T06:49:34;8.70;99.90
52273;DHT22;38227;50.942;4.016;2023-04-06T06:52:06;8.60;99.90
52273;DHT22;38227;50.942;4.016;2023-04-06T06:55:09;8.60;99.90
52273;DHT22;38227;50.942;4.016;2023-04-06T06:57:41;8.50;99.90
52273;DHT22;38227;50.942;4.016;2023-04-06T07:00:12;8.50;99.90
52273;DHT22;38227;50.942;4.016;2023-04-06T07:02:42;8.40;99.90
52273;DHT22;38227;50.942;4.016;2023-04-06T07:05:21;8.40;99.90
52273;DHT22;38227;50.942;4.016;2023-04-06T07:07:53;8.40;99.90
52273;DHT22;38227;50.942;4.016;2023-04-06T07:10:34;8.40;99.90
52273;DHT22;38227;50.942;4.016;2023-04-06T07:13:04;8.30;99.90
52273;DHT22;38227;50.942;4.016;2023-04-06T07:15:45;8.30;99.90
52273;DHT22;38227;50.942;4.016;2023-04-06T07:18:16;8.20;99.90
52273;DHT22;38227;50.942;4.016;2023-04-06T07:20:48;8.30;99.90
52273;DHT22;38227;50.942;4.016;2023-04-06T07:23:29;8.40;99.90
52273;DHT22;38227;50.942;4.016;2023-04-06T07:26:08;8.30;99.90
52273;DHT22;38227;50.942;4.016;2023-04-06T07:28:38;8.40;99.90
52273;DHT22;38227;50.942;4.016;2023-04-06T07:31:11;8.50;99.90
52273;DHT22;38227;50.942;4.016;2023-04-06T07:33:40;8.50;99.90
52273;DHT22;38227;50.942;4.016;2023-04-06T07:36:20;8.70;99.90
52273;DHT22;38227;50.942;4.016;2023-04-06T07:38:59;8.60;99.90
52273;DHT22;38227;50.942;4.016;2023-04-06T07:41:31;8.60;99.90
52273;DHT22;38227;50.942;4.016;2023-04-06T07:44:01;8.50;99.90
52273;DHT22;38227;50.942;4.016;2023-04-06T07:46:40;8.50;99.90
52273;DHT22;38227;50.942;4.016;2023-04-06T07:49:10;8.50;99.90
52273;DHT22;38227;50.942;4.016;2023-04-06T07:51:49;8.50;99.90
52273;DHT22;38227;50.942;4.016;2023-04-06T07:54:19;8.50;99.90
52273;DHT22;38227;50.942;4.016;2023-04-06T07:56:54;8.60;99.90
52273;DHT22;38227;50.942;4.016;2023-04-06T07:59:24;8.70;99.90
52273;DHT22;38227;50.942;4.016;2023-04-06T08:01:53;8.60;99.90
52273;DHT22;38227;50.942;4.016;2023-04-06T08:04:32;8.60;99.90
52273;DHT22;38227;50.942;4.016;2023-04-06T08:07:02;8.60;99.90
52273;DHT22;38227;50.942;4.016;2023-04-06T08:09:41;8.60;99.90
52273;DHT22;38227;50.942;4.016;2023-04-06T08:12:11;8.60;99.90
52273;DHT22;38227;50.942;4.016;2023-04-06T08:14:41;8.50;99.90
52273;DHT22;38227;50.942;4.016;2023-04-06T08:17:22;8.50;99.90
52273;DHT22;38227;50.942;4.016;2023-04-06T08:19:52;8.60;99.90
52273;DHT22;38227;50.942;4.016;2023-04-06T08:22:31;8.50;99.90
52273;DHT22;38227;50.942;4.016;2023-04-06T08:25:03;8.40;99.90
52273;DHT22;38227;50.942;4.016;2023-04-06T08:27:42;8.30;99.90
52273;DHT22;38227;50.942;4.016;2023-04-06T08:30:11;8.30;99.90
52273;DHT22;38227;50.942;4.016;2023-04-06T08:32:45;8.40;99.90
52273;DHT22;38227;50.942;4.016;2023-04-06T08:35:19;8.40;99.90
52273;DHT22;38227;50.942;4.016;2023-04-06T08:37:59;8.40;99.90
52273;DHT22;38227;50.942;4.016;2023-04-06T08:40:29;8.30;99.90
52273;DHT22;38227;50.942;4.016;2023-04-06T08:43:07;8.30;99.90
52273;DHT22;38227;50.942;4.016;2023-04-06T08:45:40;8.20;99.90
52273;DHT22;38227;50.942;4.016;2023-04-06T08:48:13;8.30;99.90
52273;DHT22;38227;50.942;4.016;2023-04-06T08:50:45;8.20;99.90
52273;DHT22;38227;50.942;4.016;2023-04-06T08:53:17;8.30;99.90
52273;DHT22;38227;50.942;4.016;2023-04-06T08:55:48;8.40;99.90
52273;DHT22;38227;50.942;4.016;2023-04-06T08:58:21;8.30;99.90
52273;DHT22;38227;50.942;4.016;2023-04-06T09:00:51;8.30;99.90
52273;DHT22;38227;50.942;4.016;2023-04-06T09:03:33;8.30;99.90
52273;DHT22;38227;50.942;4.016;2023-04-06T09:06:04;8.40;99.90
52273;DHT22;38227;50.942;4.016;2023-04-06T09:08:41;8.50;99.90
52273;DHT22;38227;50.942;4.016;2023-04-06T09:11:13;8.50;99.90
52273;DHT22;38227;50.942;4.016;2023-04-06T09:13:54;8.50;99.90
52273;DHT22;38227;50.942;4.016;2023-04-06T09:16:38;8.60;99.90
52273;DHT22;38227;50.942;4.016;2023-04-06T09:19:06;8.50;99.90
52273;DHT22;38227;50.942;4.016;2023-04-06T09:21:37;8.60;99.90
52273;DHT22;38227;50.942;4.016;2023-04-06T09:24:09;8.60;99.90
52273;DHT22;38227;50.942;4.016;2023-04-06T09:26:51;8.70;99.90
52273;DHT22;38227;50.942;4.016;2023-04-06T09:29:32;8.70;99.90
52273;DHT22;38227;50.942;4.016;2023-04-06T09:32:09;8.70;99.90
52273;DHT22;38227;50.942;4.016;2023-04-06T09:34:46;8.80;99.90
52273;DHT22;38227;50.942;4.016;2023-04-06T09:37:18;8.70;99.90
52273;DHT22;38227;50.942;4.016;2023-04-06T09:40:06;8.70;99.90
52273;DHT22;38227;50.942;4.016;2023-04-06T09:42:37;8.80;99.90
52273;DHT22;38227;50.942;4.016;2023-04-06T09:45:09;8.70;99.90
52273;DHT22;38227;50.942;4.016;2023-04-06T09:47:42;8.70;99.90
52273;DHT22;38227;50.942;4.016;2023-04-06T09:50:13;8.70;99.90
52273;DHT22;38227;50.942;4.016;2023-04-06T09:52:49;8.70;99.90
52273;DHT22;38227;50.942;4.016;2023-04-06T09:55:22;8.70;99.90
52273;DHT22;38227;50.942;4.016;2023-04-06T10:01:01;8.70;99.90
52273;DHT22;38227;50.942;4.016;2023-04-06T10:03:55;8.70;99.90
52273;DHT22;38227;50.942;4.016;2023-04-06T10:06:28;8.70;99.90
52273;DHT22;38227;50.942;4.016;2023-04-06T10:09:05;8.60;99.90
52273;DHT22;38227;50.942;4.016;2023-04-06T10:11:44;8.60;99.90
52273;DHT22;38227;50.942;4.016;2023-04-06T10:14:16;8.60;99.90
52273;DHT22;38227;50.942;4.016;2023-04-06T10:16:50;8.60;99.90
52273;DHT22;38227;50.942;4.016;2023-04-06T10:19:29;8.60;99.90
52273;DHT22;38227;50.942;4.016;2023-04-06T10:22:04;8.70;99.90
52273;DHT22;38227;50.942;4.016;2023-04-06T10:24:34;8.70;99.90
52273;DHT22;38227;50.942;4.016;2023-04-06T10:27:04;8.70;99.90
52273;DHT22;38227;50.942;4.016;2023-04-06T10:29:46;8.70;99.90
52273;DHT22;38227;50.942;4.016;2023-04-06T10:32:34;8.80;99.90
52273;DHT22;38227;50.942;4.016;2023-04-06T10:35:24;8.90;99.90
52273;DHT22;38227;50.942;4.016;2023-04-06T10:38:06;8.90;99.90
52273;DHT22;38227;50.942;4.016;2023-04-06T10:40:43;9.00;99.90
52273;DHT22;38227;50.942;4.016;2023-04-06T10:43:24;9.00;99.90
52273;DHT22;38227;50.942;4.016;2023-04-06T10:45:59;9.10;99.90
52273;DHT22;38227;50.942;4.016;2023-04-06T10:48:41;9.30;99.90
52273;DHT22;38227;50.942;4.016;2023-04-06T10:51:18;9.30;99.90
52273;DHT22;38227;50.942;4.016;2023-04-06T10:53:59;9.20;99.90
52273;DHT22;38227;50.942;4.016;2023-04-06T10:56:38;9.00;99.90
52273;DHT22;38227;50.942;4.016;2023-04-06T10:59:12;9.10;99.90
52273;DHT22;38227;50.942;4.016;2023-04-06T11:01:53;9.20;99.90
52273;DHT22;38227;50.942;4.016;2023-04-06T11:04:26;9.20;99.90
52273;DHT22;38227;50.942;4.016;2023-04-06T11:07:24;9.20;99.90
52273;DHT22;38227;50.942;4.016;2023-04-06T11:09:53;9.20;99.90
52273;DHT22;38227;50.942;4.016;2023-04-06T11:12:27;9.20;99.90
52273;DHT22;38227;50.942;4.016;2023-04-06T11:14:57;9.20;99.90
52273;DHT22;38227;50.942;4.016;2023-04-06T11:17:34;9.30;99.90
52273;DHT22;38227;50.942;4.016;2023-04-06T11:20:09;9.30;99.90
52273;DHT22;38227;50.942;4.016;2023-04-06T11:22:58;9.30;99.90
52273;DHT22;38227;50.942;4.016;2023-04-06T11:25:29;9.20;99.90
52273;DHT22;38227;50.942;4.016;2023-04-06T11:27:59;9.30;99.90
52273;DHT22;38227;50.942;4.016;2023-04-06T11:30:37;9.30;99.90
52273;DHT22;38227;50.942;4.016;2023-04-06T11:33:07;9.20;99.90
52273;DHT22;38227;50.942;4.016;2023-04-06T11:35:46;9.30;99.90
52273;DHT22;38227;50.942;4.016;2023-04-06T11:38:24;9.40;99.90
52273;DHT22;38227;50.942;4.016;2023-04-06T11:40:54;9.30;99.90
52273;DHT22;38227;50.942;4.016;2023-04-06T11:43:29;9.30;99.90
52273;DHT22;38227;50.942;4.016;2023-04-06T11:46:02;9.30;99.90
52273;DHT22;38227;50.942;4.016;2023-04-06T11:48:44;9.40;99.90
52273;DHT22;38227;50.942;4.016;2023-04-06T11:51:22;9.40;99.90
52273;DHT22;38227;50.942;4.016;2023-04-06T11:54:04;9.30;99.90
52273;DHT22;38227;50.942;4.016;2023-04-06T11:56:35;9.30;99.90
52273;DHT22;38227;50.942;4.016;2023-04-06T11:59:08;9.30;99.90
52273;DHT22;38227;50.942;4.016;2023-04-06T12:01:46;9.30;99.90
52273;DHT22;38227;50.942;4.016;2023-04-06T12:04:33;9.40;99.90
52273;DHT22;38227;50.942;4.016;2023-04-06T12:07:03;9.30;99.90
52273;DHT22;38227;50.942;4.016;2023-04-06T12:09:36;9.30;99.90
52273;DHT22;38227;50.942;4.016;2023-04-06T12:12:05;9.30;99.90
52273;DHT22;38227;50.942;4.016;2023-04-06T12:14:43;9.30;99.90
52273;DHT22;38227;50.942;4.016;2023-04-06T12:17:13;9.20;99.90
52273;DHT22;38227;50.942;4.016;2023-04-06T12:19:43;9.20;99.90
52273;DHT22;38227;50.942;4.016;2023-04-06T12:22:22;9.20;99.90
52273;DHT22;38227;50.942;4.016;2023-04-06T12:24:52;9.30;99.90
52273;DHT22;38227;50.942;4.016;2023-04-06T12:27:30;9.20;99.90
52273;DHT22;38227;50.942;4.016;2023-04-06T12:30:09;9.20;99.90
52273;DHT22;38227;50.942;4.016;2023-04-06T12:32:45;9.20;99.90
52273;DHT22;38227;50.942;4.016;2023-04-06T12:35:21;9.10;99.90
52273;DHT22;38227;50.942;4.016;2023-04-06T12:38:08;9.20;99.90
52273;DHT22;38227;50.942;4.016;2023-04-06T12:40:38;9.20;99.90
52273;DHT22;38227;50.942;4.016;2023-04-06T12:43:22;9.30;99.90
52273;DHT22;38227;50.942;4.016;2023-04-06T12:45:54;9.30;99.90
52273;DHT22;38227;50.942;4.016;2023-04-06T12:48:35;9.40;99.90
52273;DHT22;38227;50.942;4.016;2023-04-06T12:51:08;9.40;99.90
52273;DHT22;38227;50.942;4.016;2023-04-06T12:54:03;9.50;99.90
52273;DHT22;38227;50.942;4.016;2023-04-06T12:56:32;9.40;99.90
52273;DHT22;38227;50.942;4.016;2023-04-06T12:59:04;9.40;99.90
52273;DHT22;38227;50.942;4.016;2023-04-06T13:01:34;9.40;99.90
52273;DHT22;38227;50.942;4.016;2023-04-06T13:04:13;9.40;99.90
52273;DHT22;38227;50.942;4.016;2023-04-06T13:06:42;9.40;99.90
52273;DHT22;38227;50.942;4.016;2023-04-06T13:09:11;9.50;99.90
52273;DHT22;38227;50.942;4.016;2023-04-06T13:11:50;9.50;99.90
52273;DHT22;38227;50.942;4.016;2023-04-06T13:14:19;9.50;99.90
52273;DHT22;38227;50.942;4.016;2023-04-06T13:16:53;9.60;99.90
52273;DHT22;38227;50.942;4.016;2023-04-06T13:19:32;9.60;99.90
52273;DHT22;38227;50.942;4.016;2023-04-06T13:22:10;9.60;99.90
52273;DHT22;38227;50.942;4.016;2023-04-06T13:24:40;9.70;99.90
52273;DHT22;38227;50.942;4.016;2023-04-06T13:27:13;9.70;99.90
52273;DHT22;38227;50.942;4.016;2023-04-06T13:29:43;9.90;99.90
52273;DHT22;38227;50.942;4.016;2023-04-06T13:32:14;9.90;99.90
52273;DHT22;38227;50.942;4.016;2023-04-06T13:34:47;10.00;99.90
52273;DHT22;38227;50.942;4.016;2023-04-06T13:37:17;9.90;99.90
52273;DHT22;38227;50.942;4.016;2023-04-06T13:39:46;9.90;99.90
52273;DHT22;38227;50.942;4.016;2023-04-06T13:42:19;9.90;99.90
52273;DHT22;38227;50.942;4.016;2023-04-06T13:44:48;9.80;99.90
52273;DHT22;38227;50.942;4.016;2023-04-06T13:47:18;9.90;99.90
52273;DHT22;38227;50.942;4.016;2023-04-06T13:50:01;9.90;99.90
52273;DHT22;38227;50.942;4.016;2023-04-06T13:52:30;9.90;99.90
52273;DHT22;38227;50.942;4.016;2023-04-06T13:55:11;10.00;99.90
52273;DHT22;38227;50.942;4.016;2023-04-06T13:57:49;10.00;99.90
52273;DHT22;38227;50.942;4.016;2023-04-06T14:00:24;10.10;99.90
52273;DHT22;38227;50.942;4.016;2023-04-06T14:02:55;10.10;99.90
52273;DHT22;38227;50.942;4.016;2023-04-06T14:05:35;10.10;99.90
52273;DHT22;38227;50.942;4.016;2023-04-06T14:08:13;10.10;99.90
52273;DHT22;38227;50.942;4.016;2023-04-06T14:11:00;10.10;99.90
52273;DHT22;38227;50.942;4.016;2023-04-06T14:13:38;10.20;99.90
52273;DHT22;38227;50.942;4.016;2023-04-06T14:16:13;10.30;99.90
52273;DHT22;38227;50.942;4.016;2023-04-06T14:18:45;10.30;99.90
52273;DHT22;38227;50.942;4.016;2023-04-06T14:21:19;10.30;99.90
52273;DHT22;38227;50.942;4.016;2023-04-06T14:23:51;10.30;99.90
52273;DHT22;38227;50.942;4.016;2023-04-06T14:26:24;10.40;99.90
52273;DHT22;38227;50.942;4.016;2023-04-06T14:28:53;10.40;99.90
52273;DHT22;38227;50.942;4.016;2023-04-06T14:31:24;10.40;99.90
52273;DHT22;38227;50.942;4.016;2023-04-06T14:34:00;10.40;99.90
52273;DHT22;38227;50.942;4.016;2023-04-06T14:36:32;10.40;99.90
52273;DHT22;38227;50.942;4.016;2023-04-06T14:39:08;10.50;99.90
52273;DHT22;38227;50.942;4.016;2023-04-06T14:41:42;10.60;99.90
52273;DHT22;38227;50.942;4.016;2023-04-06T14:44:16;10.70;99.90
52273;DHT22;38227;50.942;4.016;2023-04-06T14:46:54;10.80;99.90
52273;DHT22;38227;50.942;4.016;2023-04-06T14:49:23;10.90;99.90
52273;DHT22;38227;50.942;4.016;2023-04-06T14:52:01;11.00;99.90
52273;DHT22;38227;50.942;4.016;2023-04-06T14:54:31;11.10;99.90
52273;DHT22;38227;50.942;4.016;2023-04-06T14:57:04;11.10;99.90
52273;DHT22;38227;50.942;4.016;2023-04-06T14:59:33;11.30;99.90
52273;DHT22;38227;50.942;4.016;2023-04-06T15:02:03;11.40;99.90
52273;DHT22;38227;50.942;4.016;2023-04-06T15:04:35;11.50;99.90
52273;DHT22;38227;50.942;4.016;2023-04-06T15:07:08;11.60;99.90
52273;DHT22;38227;50.942;4.016;2023-04-06T15:09:38;11.70;99.90
52273;DHT22;38227;50.942;4.016;2023-04-06T15:12:17;11.90;99.90
52273;DHT22;38227;50.942;4.016;2023-04-06T15:14:56;12.00;99.90
52273;DHT22;38227;50.942;4.016;2023-04-06T15:17:26;12.20;99.90
52273;DHT22;38227;50.942;4.016;2023-04-06T15:20:06;12.20;99.90
52273;DHT22;38227;50.942;4.016;2023-04-06T15:22:44;12.00;99.90
52273;DHT22;38227;50.942;4.016;2023-04-06T15:25:17;12.10;99.90
52273;DHT22;38227;50.942;4.016;2023-04-06T15:27:49;12.10;99.90
52273;DHT22;38227;50.942;4.016;2023-04-06T15:30:36;12.00;99.90
52273;DHT22;38227;50.942;4.016;2023-04-06T15:33:09;12.00;99.90
52273;DHT22;38227;50.942;4.016;2023-04-06T15:36:00;12.00;99.90
52273;DHT22;38227;50.942;4.016;2023-04-06T15:38:38;12.00;99.90
52273;DHT22;38227;50.942;4.016;2023-04-06T15:41:07;12.10;99.90
52273;DHT22;38227;50.942;4.016;2023-04-06T15:43:43;12.00;99.90
52273;DHT22;38227;50.942;4.016;2023-04-06T15:46:14;12.10;99.90
52273;DHT22;38227;50.942;4.016;2023-04-06T15:48:53;12.10;99.90
52273;DHT22;38227;50.942;4.016;2023-04-06T15:51:33;12.10;99.90
52273;DHT22;38227;50.942;4.016;2023-04-06T15:54:20;12.20;99.90
52273;DHT22;38227;50.942;4.016;2023-04-06T15:56:52;12.30;99.90
52273;DHT22;38227;50.942;4.016;2023-04-06T15:59:25;12.30;99.90
52273;DHT22;38227;50.942;4.016;2023-04-06T16:01:56;12.40;99.90
52273;DHT22;38227;50.942;4.016;2023-04-06T16:04:26;12.60;99.90
52273;DHT22;38227;50.942;4.016;2023-04-06T16:06:55;12.70;99.90
52273;DHT22;38227;50.942;4.016;2023-04-06T16:09:27;12.70;99.90
52273;DHT22;38227;50.942;4.016;2023-04-06T16:11:59;12.70;99.90
52273;DHT22;38227;50.942;4.016;2023-04-06T16:14:32;12.70;99.90
52273;DHT22;38227;50.942;4.016;2023-04-06T16:17:12;12.70;99.90
52273;DHT22;38227;50.942;4.016;2023-04-06T16:19:43;12.80;99.90
52273;DHT22;38227;50.942;4.016;2023-04-06T16:22:15;12.80;99.90
52273;DHT22;38227;50.942;4.016;2023-04-06T16:24:46;12.60;99.90
52273;DHT22;38227;50.942;4.016;2023-04-06T16:27:17;12.60;99.90
52273;DHT22;38227;50.942;4.016;2023-04-06T16:30:05;12.50;99.90
52273;DHT22;38227;50.942;4.016;2023-04-06T16:32:44;12.60;99.90